createdAt,value
2022-09-06T00:00:58.312Z,46.35
2022-09-06T00:03:28.078Z,46.35
2022-09-06T00:05:55.014Z,46.29
2022-09-06T00:08:21.505Z,46.15
2022-09-06T00:10:48.034Z,46.48
2022-09-06T00:13:14.677Z,46.55
2022-09-06T00:15:41.232Z,46.30
2022-09-06T00:18:08.485Z,46.62
2022-09-06T00:20:36.641Z,46.16
2022-09-06T00:23:05.589Z,46.26
2022-09-06T00:25:32.467Z,46.35
2022-09-06T00:28:06.271Z,46.33
2022-09-06T00:30:33.849Z,46.66
2022-09-06T00:33:00.436Z,46.48
2022-09-06T00:35:29.090Z,46.27
2022-09-06T00:38:00.594Z,46.24
2022-09-06T00:40:29.436Z,46.35
2022-09-06T00:42:57.486Z,46.53
2022-09-06T00:45:26.865Z,46.35
2022-09-06T00:47:53.653Z,46.33
2022-09-06T00:50:20.302Z,46.60
2022-09-06T00:52:50.053Z,46.67
2022-09-06T00:55:16.920Z,46.46
2022-09-06T00:57:44.126Z,46.58
2022-09-06T01:00:10.896Z,46.74
2022-09-06T01:02:37.529Z,46.42
2022-09-06T01:05:05.545Z,46.67
2022-09-06T01:08:24.488Z,46.42
2022-09-06T01:11:09.231Z,46.50
2022-09-06T01:13:51.203Z,46.61
2022-09-06T01:16:40.103Z,46.35
2022-09-06T01:19:33.000Z,46.66
2022-09-06T01:22:28.261Z,46.57
2022-09-06T01:25:28.124Z,46.47
2022-09-06T01:28:23.712Z,46.50
2022-09-06T01:31:25.540Z,46.58
2022-09-06T01:34:03.877Z,46.51
2022-09-06T01:36:45.779Z,46.57
2022-09-06T01:39:33.011Z,46.65
2022-09-06T01:42:07.038Z,46.71
2022-09-06T01:44:36.049Z,46.54
2022-09-06T01:47:16.460Z,46.85
2022-09-06T01:49:58.093Z,46.86
2022-09-06T01:52:39.407Z,46.53
2022-09-06T01:55:24.382Z,46.68
2022-09-06T01:57:56.838Z,46.79
2022-09-06T02:00:23.731Z,46.53
2022-09-06T02:03:20.098Z,46.58
2022-09-06T02:05:51.842Z,46.66
2022-09-06T02:08:31.606Z,46.31
2022-09-06T02:11:01.671Z,46.70
2022-09-06T02:13:35.210Z,46.58
2022-09-06T02:16:04.366Z,46.29
2022-09-06T02:18:48.099Z,46.45
2022-09-06T02:21:18.297Z,46.30
2022-09-06T02:23:47.277Z,46.29
2022-09-06T02:26:27.484Z,46.45
2022-09-06T02:28:54.837Z,46.37
2022-09-06T02:31:48.896Z,46.40
2022-09-06T02:34:18.296Z,46.69
2022-09-06T02:36:45.670Z,46.50
2022-09-06T02:39:12.563Z,46.57
2022-09-06T02:41:43.560Z,46.47
2022-09-06T02:44:10.026Z,46.53
2022-09-06T02:46:36.554Z,46.53
2022-09-06T02:49:03.703Z,46.51
2022-09-06T02:51:30.203Z,46.34
2022-09-06T02:53:56.873Z,46.27
2022-09-06T02:56:23.400Z,46.16
2022-09-06T02:58:49.931Z,46.10
2022-09-06T03:01:16.403Z,46.03
2022-09-06T03:03:42.897Z,46.19
2022-09-06T03:06:09.346Z,46.19
2022-09-06T03:08:36.535Z,46.06
2022-09-06T03:11:03.044Z,45.89
2022-09-06T03:13:29.880Z,45.89
2022-09-06T03:15:58.706Z,45.85
2022-09-06T03:18:26.897Z,45.68
2022-09-06T03:20:54.296Z,46.23
2022-09-06T03:23:23.595Z,45.85
2022-09-06T03:25:50.266Z,45.72
2022-09-06T03:28:18.340Z,45.97
2022-09-06T03:30:46.122Z,45.55
2022-09-06T03:33:12.789Z,45.85
2022-09-06T03:35:39.655Z,45.78
2022-09-06T03:38:06.077Z,45.72
2022-09-06T03:40:32.557Z,45.49
2022-09-06T03:42:59.036Z,45.43
2022-09-06T03:45:25.557Z,45.41
2022-09-06T03:47:52.093Z,45.58
2022-09-06T03:50:18.512Z,45.30
2022-09-06T03:52:44.947Z,45.33
2022-09-06T03:55:12.009Z,45.62
2022-09-06T03:57:38.479Z,45.28
2022-09-06T04:00:05.443Z,45.16
2022-09-06T04:02:38.064Z,45.31
2022-09-06T04:05:04.827Z,45.26
2022-09-06T04:07:31.268Z,45.33
2022-09-06T04:09:57.681Z,45.29
2022-09-06T04:12:24.119Z,45.53
2022-09-06T04:14:50.591Z,45.09
2022-09-06T04:17:17.151Z,45.30
2022-09-06T04:19:43.669Z,45.31
2022-09-06T04:22:10.097Z,45.22
2022-09-06T04:24:36.578Z,45.02
2022-09-06T04:27:03.038Z,45.04
2022-09-06T04:29:29.552Z,45.07
2022-09-06T04:31:56.090Z,45.04
2022-09-06T04:34:22.611Z,45.18
2022-09-06T04:36:49.051Z,44.90
2022-09-06T04:39:15.519Z,44.67
2022-09-06T04:41:42.648Z,44.95
2022-09-06T04:44:09.469Z,45.05
2022-09-06T04:46:35.977Z,44.75
2022-09-06T04:49:02.560Z,45.09
2022-09-06T04:51:29.047Z,45.23
2022-09-06T04:53:55.545Z,44.78
2022-09-06T04:56:24.102Z,44.73
2022-09-06T04:58:52.370Z,44.94
2022-09-06T05:01:19.011Z,45.00
2022-09-06T05:03:45.769Z,44.86
2022-09-06T05:06:18.584Z,44.95
2022-09-06T05:08:45.051Z,44.66
2022-09-06T05:11:11.506Z,44.86
2022-09-06T05:13:38.265Z,44.92
2022-09-06T05:16:06.698Z,44.77
2022-09-06T05:18:34.171Z,44.83
2022-09-06T05:21:00.759Z,45.03
2022-09-06T05:23:28.120Z,44.77
2022-09-06T05:25:55.042Z,44.74
2022-09-06T05:28:21.680Z,44.91
2022-09-06T05:30:48.212Z,45.04
2022-09-06T05:33:20.097Z,44.94
2022-09-06T05:35:46.575Z,45.21
2022-09-06T05:38:13.061Z,44.82
2022-09-06T05:40:39.850Z,44.80
2022-09-06T05:43:06.313Z,44.66
2022-09-06T05:45:32.859Z,44.66
2022-09-06T05:47:59.349Z,44.74
2022-09-06T05:50:25.818Z,44.91
2022-09-06T05:52:54.203Z,44.65
2022-09-06T05:55:20.629Z,44.88
2022-09-06T05:57:47.104Z,44.86
2022-09-06T06:00:13.988Z,44.91
2022-09-06T06:02:40.618Z,45.05
2022-09-06T06:05:07.966Z,44.65
2022-09-06T06:07:34.795Z,44.62
2022-09-06T06:10:01.272Z,44.91
2022-09-06T06:12:27.955Z,44.63
2022-09-06T06:14:54.414Z,44.65
2022-09-06T06:17:20.888Z,44.80
2022-09-06T06:19:47.519Z,44.64
2022-09-06T06:22:13.987Z,44.68
2022-09-06T06:24:40.482Z,44.90
2022-09-06T06:27:06.928Z,44.65
2022-09-06T06:29:33.404Z,44.68
2022-09-06T06:31:59.976Z,44.70
2022-09-06T06:34:26.449Z,44.56
2022-09-06T06:36:52.897Z,44.66
2022-09-06T06:39:19.362Z,45.00
2022-09-06T06:41:45.936Z,44.71
2022-09-06T06:44:28.320Z,44.83
2022-09-06T06:46:57.811Z,44.93
2022-09-06T06:49:24.902Z,44.89
2022-09-06T06:51:51.363Z,44.97
2022-09-06T06:54:17.826Z,45.00
2022-09-06T06:56:45.573Z,44.73
2022-09-06T06:59:12.103Z,44.93
2022-09-06T07:01:39.036Z,45.16
2022-09-06T07:04:06.009Z,45.17
2022-09-06T07:12:19.165Z,45.14
2022-09-06T07:14:45.613Z,45.06
2022-09-06T07:17:12.038Z,45.13
2022-09-06T07:22:25.036Z,45.10
2022-09-06T07:24:51.683Z,44.96
2022-09-06T07:30:04.801Z,44.98
2022-09-06T07:32:34.323Z,44.96
2022-09-06T07:35:00.780Z,44.98
2022-09-06T07:37:27.198Z,45.27
2022-09-06T07:39:53.822Z,45.39
2022-09-06T07:42:20.320Z,45.21
2022-09-06T07:44:46.801Z,45.22
2022-09-06T07:55:35.566Z,45.18
2022-09-06T07:58:02.043Z,45.21
2022-09-06T08:00:28.585Z,45.13
2022-09-06T08:02:55.048Z,45.32
2022-09-06T08:10:54.420Z,45.06
2022-09-06T08:13:20.935Z,45.18
2022-09-06T08:15:47.471Z,45.05
2022-09-06T08:18:14.022Z,45.05
2022-09-06T08:20:40.572Z,45.34
2022-09-06T08:23:10.541Z,44.87
2022-09-06T08:25:37.086Z,45.20
2022-09-06T08:28:03.718Z,45.09
2022-09-06T08:30:30.610Z,45.27
2022-09-06T08:32:57.090Z,45.17
2022-09-06T08:35:23.536Z,45.29
2022-09-06T08:37:49.962Z,45.40
2022-09-06T08:40:21.210Z,45.25
2022-09-06T08:42:48.540Z,45.40
2022-09-06T08:45:21.728Z,45.58
2022-09-06T08:47:50.672Z,45.29
2022-09-06T08:50:17.445Z,45.48
2022-09-06T08:53:16.859Z,45.66
2022-09-06T08:56:03.168Z,45.40
2022-09-06T08:58:42.175Z,45.58
2022-09-06T09:01:17.136Z,45.63
2022-09-06T09:03:44.596Z,45.63
2022-09-06T09:06:11.411Z,45.57
2022-09-06T09:08:52.851Z,45.59
2022-09-06T09:11:22.433Z,45.78
2022-09-06T09:13:59.218Z,45.88
2022-09-06T09:16:26.048Z,45.72
2022-09-06T09:18:56.071Z,45.99
2022-09-06T09:21:30.216Z,45.82
2022-09-06T09:24:01.798Z,45.90
2022-09-06T09:26:36.799Z,46.06
2022-09-06T09:29:14.459Z,45.88
2022-09-06T09:31:53.474Z,45.92
2022-09-06T09:34:40.518Z,46.12
2022-09-06T09:40:15.229Z,46.19
2022-09-06T09:42:42.409Z,46.04
2022-09-06T09:45:20.888Z,46.28
2022-09-06T09:47:47.419Z,46.32
2022-09-06T09:50:29.145Z,46.13
2022-09-06T09:52:56.129Z,46.47
2022-09-06T09:55:25.805Z,46.17
2022-09-06T09:57:54.217Z,46.34
2022-09-06T10:01:11.701Z,46.40
2022-09-06T10:09:22.783Z,46.33
2022-09-06T10:11:55.806Z,46.47
2022-09-06T10:14:44.124Z,46.19
2022-09-06T10:17:28.627Z,46.46
2022-09-06T10:19:55.132Z,46.63
2022-09-06T10:22:35.404Z,46.48
2022-09-06T10:25:36.153Z,46.28
2022-09-06T10:28:27.764Z,46.48
2022-09-06T10:31:28.603Z,46.27
2022-09-06T10:34:07.228Z,46.38
2022-09-06T10:36:58.890Z,46.73
2022-09-06T10:39:50.284Z,46.59
2022-09-06T10:42:26.727Z,46.56
2022-09-06T10:45:24.234Z,46.55
2022-09-06T10:48:14.908Z,46.29
2022-09-06T10:50:47.607Z,46.36
2022-09-06T10:53:27.454Z,46.26
2022-09-06T10:56:05.083Z,46.45
2022-09-06T11:01:40.291Z,46.40
2022-09-06T11:04:13.073Z,46.33
2022-09-06T11:06:55.877Z,46.46
2022-09-06T11:09:34.140Z,46.35
2022-09-06T11:12:14.208Z,46.03
2022-09-06T11:14:41.412Z,46.20
2022-09-06T11:17:32.731Z,46.30
2022-09-06T11:20:14.855Z,46.32
2022-09-06T11:23:11.678Z,45.91
2022-09-06T11:26:04.399Z,45.99
2022-09-06T11:28:42.302Z,46.01
2022-09-06T11:34:10.096Z,45.61
2022-09-06T11:36:46.599Z,45.75
2022-09-06T11:39:13.782Z,45.90
2022-09-06T11:41:42.422Z,45.73
2022-09-06T11:44:10.510Z,45.54
2022-09-06T11:46:57.468Z,45.67
2022-09-06T11:49:32.210Z,45.68
2022-09-06T11:51:59.463Z,45.64
2022-09-06T11:54:38.169Z,45.44
2022-09-06T11:57:07.634Z,45.47
2022-09-06T11:59:41.616Z,45.48
2022-09-06T12:02:36.935Z,45.54
2022-09-06T12:05:07.048Z,45.75
2022-09-06T12:07:36.235Z,45.52
2022-09-06T12:10:31.614Z,45.38
2022-09-06T12:12:58.830Z,45.49
2022-09-06T12:15:29.547Z,45.36
2022-09-06T12:17:57.915Z,45.37
2022-09-06T12:20:48.942Z,45.39
2022-09-06T12:23:34.382Z,45.46
2022-09-06T12:26:42.481Z,45.70
2022-09-06T12:29:11.036Z,45.81
2022-09-06T12:31:52.197Z,45.75
2022-09-06T12:34:29.085Z,45.83
2022-09-06T12:36:59.050Z,45.82
2022-09-06T12:39:26.505Z,45.58
2022-09-06T12:42:11.182Z,45.64
2022-09-06T12:44:42.828Z,45.59
2022-09-06T12:47:19.271Z,45.59
2022-09-06T12:49:45.728Z,45.52
2022-09-06T12:52:19.333Z,45.53
2022-09-06T12:54:50.216Z,45.39
2022-09-06T12:57:23.889Z,45.34
2022-09-06T12:59:57.187Z,45.60
2022-09-06T13:02:26.445Z,45.55
2022-09-06T13:05:02.604Z,45.46
2022-09-06T13:07:31.601Z,45.59
2022-09-06T13:09:58.619Z,45.52
2022-09-06T13:12:26.298Z,45.38
2022-09-06T13:14:59.403Z,45.42
2022-09-06T13:17:28.617Z,45.49
2022-09-06T13:19:55.959Z,45.64
2022-09-06T13:23:11.547Z,45.83
2022-09-06T13:25:52.310Z,45.81
2022-09-06T13:28:33.498Z,45.79
2022-09-06T13:31:20.460Z,45.87
2022-09-06T13:33:57.699Z,45.88
2022-09-06T13:36:27.980Z,46.06
2022-09-06T13:38:55.582Z,46.11
2022-09-06T13:41:24.800Z,46.60
2022-09-06T13:44:04.268Z,46.30
2022-09-06T13:46:33.222Z,46.55
2022-09-06T13:48:59.822Z,46.64
2022-09-06T13:51:26.545Z,46.66
2022-09-06T13:54:08.258Z,47.04
2022-09-06T13:56:35.138Z,47.32
2022-09-06T13:59:02.384Z,47.37
2022-09-06T14:01:29.467Z,47.23
2022-09-06T14:03:56.262Z,47.15
2022-09-06T14:06:22.886Z,47.18
2022-09-06T14:09:06.379Z,47.34
2022-09-06T14:11:34.511Z,47.72
2022-09-06T14:14:01.031Z,47.41
2022-09-06T14:16:27.490Z,47.66
2022-09-06T14:18:54.071Z,47.27
2022-09-06T14:21:20.527Z,47.44
2022-09-06T14:23:51.577Z,47.56
2022-09-06T14:26:19.251Z,47.67
2022-09-06T14:28:45.749Z,47.60
2022-09-06T14:31:15.159Z,47.67
2022-09-06T14:33:42.127Z,47.88
2022-09-06T14:36:11.855Z,47.58
2022-09-06T14:38:40.305Z,47.76
2022-09-06T14:41:08.386Z,47.95
2022-09-06T14:43:35.834Z,48.01
2022-09-06T14:46:07.661Z,47.88
2022-09-06T14:48:37.186Z,48.49
2022-09-06T14:51:21.776Z,48.32
2022-09-06T14:53:51.945Z,48.06
2022-09-06T14:56:19.621Z,48.16
2022-09-06T14:58:46.646Z,48.02
2022-09-06T15:01:21.280Z,48.01
2022-09-06T15:03:51.770Z,48.22
2022-09-06T15:06:21.395Z,48.00
2022-09-06T15:08:48.922Z,48.07
2022-09-06T15:11:29.712Z,48.07
2022-09-06T15:13:57.043Z,48.13
2022-09-06T15:16:23.650Z,48.07
2022-09-06T15:18:50.397Z,48.25
2022-09-06T15:21:17.261Z,48.04
2022-09-06T15:23:44.046Z,48.00
2022-09-06T15:26:12.328Z,48.13
2022-09-06T15:28:39.962Z,48.17
2022-09-06T15:31:07.393Z,48.05
2022-09-06T15:33:35.779Z,47.96
2022-09-06T15:36:08.253Z,48.19
2022-09-06T15:38:45.331Z,48.19
2022-09-06T15:41:17.363Z,48.37
2022-09-06T15:43:47.206Z,48.29
2022-09-06T15:46:15.845Z,48.25
2022-09-06T15:48:53.234Z,48.25
2022-09-06T15:51:22.652Z,48.09
2022-09-06T15:53:49.218Z,48.32
2022-09-06T15:56:17.115Z,48.28
2022-09-06T15:58:45.715Z,48.21
2022-09-06T16:01:18.629Z,48.16
2022-09-06T16:03:48.886Z,48.27
2022-09-06T16:09:07.579Z,48.27
2022-09-06T16:11:36.570Z,48.33
2022-09-06T16:14:09.242Z,48.56
2022-09-06T16:16:37.031Z,48.57
2022-09-06T16:19:03.706Z,48.60
2022-09-06T16:21:32.910Z,48.67
2022-09-06T16:24:05.593Z,48.69
2022-09-06T16:26:35.750Z,48.77
2022-09-06T16:29:03.871Z,48.69
2022-09-06T16:31:30.493Z,48.80
2022-09-06T16:33:57.899Z,48.75
2022-09-06T16:36:24.875Z,48.96
2022-09-06T16:38:51.990Z,48.93
2022-09-06T16:41:40.341Z,48.79
2022-09-06T16:44:08.577Z,48.80
2022-09-06T16:46:35.143Z,48.77
2022-09-06T16:49:02.890Z,48.78
2022-09-06T16:51:31.116Z,48.72
2022-09-06T16:53:58.963Z,48.66
2022-09-06T16:56:28.468Z,48.61
2022-09-06T16:58:57.424Z,48.74
2022-09-06T17:01:25.498Z,48.60
2022-09-06T17:03:52.768Z,48.52
2022-09-06T17:06:20.436Z,48.54
2022-09-06T17:08:47.596Z,48.60
2022-09-06T17:11:17.230Z,48.60
2022-09-06T17:13:46.002Z,48.55
2022-09-06T17:16:32.331Z,48.62
2022-09-06T17:19:01.108Z,48.62
2022-09-06T17:21:29.020Z,48.45
2022-09-06T17:23:55.834Z,48.36
2022-09-06T17:26:22.747Z,48.22
2022-09-06T17:28:50.349Z,48.31
2022-09-06T17:31:22.256Z,48.06
2022-09-06T17:33:50.519Z,48.04
2022-09-06T17:36:21.186Z,47.89
2022-09-06T17:38:52.817Z,48.10
2022-09-06T17:41:51.071Z,48.42
2022-09-06T17:44:20.026Z,47.96
2022-09-06T17:47:09.245Z,48.19
2022-09-06T17:49:33.855Z,48.16
2022-09-06T17:52:00.315Z,47.86
2022-09-06T17:54:27.849Z,47.67
2022-09-06T17:56:54.303Z,47.80
2022-09-06T17:59:20.888Z,47.90
2022-09-06T18:01:47.509Z,47.83
2022-09-06T18:04:14.938Z,47.90
2022-09-06T18:06:43.061Z,48.00
2022-09-06T18:09:14.717Z,47.83
2022-09-06T18:11:44.447Z,47.91
2022-09-06T18:14:15.903Z,47.84
2022-09-06T18:16:45.223Z,47.79
2022-09-06T18:19:12.312Z,48.09
2022-09-06T18:21:41.001Z,48.02
2022-09-06T18:24:09.459Z,48.13
2022-09-06T18:26:37.337Z,47.89
2022-09-06T18:29:06.948Z,48.02
2022-09-06T18:31:33.619Z,47.98
2022-09-06T18:34:01.350Z,47.96
2022-09-06T18:36:31.997Z,48.10
2022-09-06T18:39:04.593Z,48.01
2022-09-06T18:41:51.203Z,48.06
2022-09-06T18:44:17.952Z,47.96
2022-09-06T18:46:44.731Z,48.09
2022-09-06T18:49:14.147Z,48.27
2022-09-06T18:51:41.414Z,48.22
2022-09-06T18:54:08.325Z,47.93
2022-09-06T18:56:34.830Z,48.15
2022-09-06T18:59:02.071Z,47.98
2022-09-06T19:01:30.164Z,48.09
2022-09-06T19:04:00.921Z,48.01
2022-09-06T19:06:29.609Z,47.95
2022-09-06T19:09:01.060Z,48.24
2022-09-06T19:11:28.269Z,48.13
2022-09-06T19:13:56.743Z,48.39
2022-09-06T19:16:24.992Z,48.23
2022-09-06T19:18:51.766Z,48.04
2022-09-06T19:21:19.881Z,48.29
2022-09-06T19:23:53.682Z,48.25
2022-09-06T19:26:22.331Z,48.32
2022-09-06T19:28:56.036Z,48.51
2022-09-06T19:31:24.661Z,48.54
2022-09-06T19:33:51.971Z,48.42
2022-09-06T19:36:19.944Z,48.41
2022-09-06T19:39:02.477Z,48.58
2022-09-06T19:41:31.001Z,48.78
2022-09-06T19:43:58.378Z,48.82
2022-09-06T19:46:25.182Z,48.77
2022-09-06T19:48:54.017Z,48.65
2022-09-06T19:51:20.866Z,48.78
2022-09-06T19:53:55.114Z,48.53
2022-09-06T19:56:24.543Z,48.66
2022-09-06T19:58:56.037Z,48.78
2022-09-06T20:01:24.065Z,48.58
2022-09-06T20:03:50.939Z,48.60
2022-09-06T20:06:17.394Z,48.47
2022-09-06T20:08:44.081Z,48.80
2022-09-06T20:11:12.709Z,48.96
2022-09-06T20:13:40.348Z,48.72
2022-09-06T20:16:08.615Z,48.87
2022-09-06T20:18:35.530Z,48.75
2022-09-06T20:21:02.474Z,48.85
2022-09-06T20:23:30.266Z,49.20
2022-09-06T20:26:05.544Z,48.88
2022-09-06T20:28:33.347Z,49.06
2022-09-06T20:31:02.231Z,49.17
2022-09-06T20:33:29.746Z,49.08
2022-09-06T20:35:58.068Z,49.17
2022-09-06T20:38:25.473Z,49.25
2022-09-06T20:41:12.430Z,49.13
2022-09-06T20:43:40.174Z,49.14
2022-09-06T20:46:14.702Z,49.22
2022-09-06T20:48:44.703Z,49.54
2022-09-06T20:51:18.950Z,49.12
2022-09-06T20:53:48.418Z,49.44
2022-09-06T20:56:17.326Z,49.49
2022-09-06T20:58:48.778Z,49.55
2022-09-06T21:01:19.344Z,49.44
2022-09-06T21:03:45.926Z,49.35
2022-09-06T21:06:12.529Z,49.61
2022-09-06T21:08:42.783Z,49.34
2022-09-06T21:11:09.945Z,49.65
2022-09-06T21:13:36.988Z,49.59
2022-09-06T21:16:04.506Z,49.66
2022-09-06T21:18:32.072Z,49.77
2022-09-06T21:21:01.620Z,49.65
2022-09-06T21:23:30.411Z,49.66
2022-09-06T21:26:05.488Z,49.59
2022-09-06T21:28:35.663Z,49.66
2022-09-06T21:31:09.794Z,49.73
2022-09-06T21:33:42.250Z,49.65
2022-09-06T21:36:13.744Z,49.89
2022-09-06T21:38:48.237Z,50.02
2022-09-06T21:41:16.566Z,49.74
2022-09-06T21:43:43.675Z,49.91
2022-09-06T21:46:18.424Z,49.71
2022-09-06T21:48:50.315Z,50.27
2022-09-06T21:51:20.263Z,50.26
2022-09-06T21:53:48.335Z,50.10
2022-09-06T21:56:15.908Z,50.29
2022-09-06T21:58:42.416Z,50.34
2022-09-06T22:01:09.004Z,50.42
2022-09-06T22:03:40.193Z,50.37
2022-09-06T22:06:10.258Z,50.51
2022-09-06T22:08:37.037Z,50.51
2022-09-06T22:11:18.344Z,50.08
2022-09-06T22:13:46.042Z,50.42
2022-09-06T22:16:14.679Z,50.34
2022-09-06T22:18:41.631Z,50.45
2022-09-06T22:21:10.882Z,50.27
2022-09-06T22:23:38.471Z,50.38
2022-09-06T22:26:11.694Z,50.64
2022-09-06T22:28:38.480Z,50.68
2022-09-06T22:31:05.310Z,50.66
2022-09-06T22:33:31.829Z,50.51
2022-09-06T22:36:00.430Z,50.90
2022-09-06T22:38:28.373Z,51.05
2022-09-06T22:40:55.048Z,50.96
2022-09-06T22:43:21.470Z,51.15
2022-09-06T22:45:51.821Z,51.14
2022-09-06T22:48:18.783Z,50.95
2022-09-06T22:50:45.619Z,50.78
2022-09-06T22:53:12.471Z,50.77
2022-09-06T22:55:39.081Z,50.85
2022-09-06T22:58:05.906Z,51.00
2022-09-06T23:00:35.984Z,51.03
2022-09-06T23:03:02.688Z,50.92
2022-09-06T23:05:31.452Z,51.03
2022-09-06T23:08:00.173Z,51.26
2022-09-06T23:10:27.424Z,51.03
2022-09-06T23:12:54.512Z,51.25
2022-09-06T23:15:21.252Z,51.13
2022-09-06T23:17:47.930Z,51.51
2022-09-06T23:20:14.457Z,51.18
2022-09-06T23:22:41.130Z,51.34
2022-09-06T23:25:08.636Z,51.57
2022-09-06T23:27:35.098Z,51.36
2022-09-06T23:30:02.779Z,51.18
2022-09-06T23:32:31.619Z,51.48
2022-09-06T23:34:58.098Z,51.33
2022-09-06T23:37:24.648Z,51.27
2022-09-06T23:39:52.510Z,51.24
2022-09-06T23:42:19.362Z,51.42
2022-09-06T23:44:45.790Z,51.57
2022-09-06T23:47:12.242Z,51.37
2022-09-06T23:49:38.864Z,51.35
2022-09-06T23:52:05.326Z,51.52
2022-09-06T23:54:31.752Z,51.51
2022-09-06T23:56:58.248Z,51.38
2022-09-06T23:59:24.823Z,51.64
